Time;durP1;ratioP1;P1;durP2;ratioP2;P2;SDS_P1;SDS_P2;PMS_P1;PMS_P2;Temp;Humidity;BMP_temperature;BMP_pressure;BME280_temperature;BME280_humidity;BME280_pressure;Samples;Min_cycle;Max_cycle;Signal;HPM_P1;HPM_P2
2024/01/02 15:03:19;;;;;;;29.80;13.00;;;;;;;5.86;93.42;97820.50;106751;1302;545177;-39
2024/01/02 15:05:49;;;;;;;25.40;13.00;;;;;;;5.83;93.68;97820.34;107382;1300;22178;-41
2024/01/02 15:08:24;;;;;;;33.80;14.10;;;;;;;5.79;93.97;97817.77;106883;1294;22607;-37
2024/01/02 15:11:03;;;;;;;27.30;13.30;;;;;;;5.72;93.71;97813.86;107377;1291;22245;-41
2024/01/02 15:13:36;;;;;;;31.90;12.90;;;;;;;5.68;93.96;97808.70;107389;1302;22258;-40
2024/01/02 15:16:30;;;;;;;23.70;11.80;;;;;;;5.64;94.17;97808.42;107320;1293;151607;-41
2024/01/02 15:19:20;;;;;;;38.30;12.80;;;;;;;5.55;94.32;97804.77;107640;1288;22429;-41
2024/01/02 15:22:05;;;;;;;33.40;12.90;;;;;;;5.57;94.51;97796.28;107618;1287;22905;-40
2024/01/02 15:24:57;;;;;;;34.50;13.80;;;;;;;5.54;94.72;97789.86;107660;1302;22269;-39
2024/01/02 15:27:48;;;;;;;38.40;14.00;;;;;;;5.51;94.47;97787.61;107717;1291;22852;-39
2024/01/02 15:30:14;;;;;;;35.10;13.70;;;;;;;5.56;94.82;97780.69;107719;1291;22315;-40
2024/01/02 15:32:40;;;;;;;35.20;15.40;;;;;;;5.61;94.86;97783.05;107723;1308;22491;-41
2024/01/02 15:35:07;;;;;;;41.90;14.90;;;;;;;5.62;94.84;97776.38;107737;1286;22258;-40
2024/01/02 15:37:41;;;;;;;39.40;13.40;;;;;;;5.58;94.75;97773.28;107696;1308;22424;-39
2024/01/02 15:40:08;;;;;;;30.40;13.50;;;;;;;5.56;94.74;97770.59;107715;1288;22275;-39
2024/01/02 15:42:48;;;;;;;;;;;;;;;5.61;94.75;97767.05;107722;1308;22590;-39
2024/01/02 15:45:24;;;;;;;32.10;12.70;;;;;;;5.59;95.15;97770.63;107865;1307;22253;-46
2024/01/02 15:48:26;;;;;;;29.80;12.90;;;;;;;5.57;95.69;97771.98;107858;1288;23206;-41
2024/01/02 15:51:02;;;;;;;33.40;13.80;;;;;;;5.52;96.29;97767.02;107174;1308;22572;-39
2024/01/02 15:53:58;;;;;;;27.60;14.00;;;;;;;5.58;96.08;97766.69;106526;1309;22566;-42
2024/01/02 15:56:35;;;;;;;33.50;12.10;;;;;;;5.53;96.22;97755.29;107039;1310;22299;-39
2024/01/02 15:59:22;;;;;;;26.40;9.80;;;;;;;5.43;96.67;97748.46;106062;1297;22574;-38
2024/01/02 16:02:22;;;;;;;25.00;10.30;;;;;;;5.45;97.10;97747.86;106821;1297;23388;-39
2024/01/02 16:05:19;;;;;;;20.20;9.80;;;;;;;5.43;97.24;97744.97;107158;1315;22270;-40
2024/01/02 16:07:57;;;;;;;24.60;10.60;;;;;;;5.43;97.90;97739.42;107160;1292;22311;-39
2024/01/02 16:10:34;;;;;;;22.20;10.00;;;;;;;5.44;98.18;97731.86;106127;1292;22673;-38
2024/01/02 16:13:18;;;;;;;;;;;;;;;5.42;98.79;97726.27;107154;1315;22528;-41
2024/01/02 16:16:13;;;;;;;17.90;8.00;;;;;;;5.41;98.74;97725.80;107142;1315;22288;-39
2024/01/02 16:18:57;;;;;;;20.50;8.80;;;;;;;5.38;98.76;97720.96;106967;1297;22580;-40
2024/01/02 16:21:43;;;;;;;22.30;8.10;;;;;;;5.34;99.30;97714.05;106257;1315;22313;-44
2024/01/02 16:24:37;;;;;;;17.30;6.90;;;;;;;5.34;99.09;97716.30;107101;1315;22838;-40
2024/01/02 16:27:28;;;;;;;16.90;7.30;;;;;;;5.29;99.67;97712.91;106952;1315;23202;-41
2024/01/02 16:30:19;;;;;;;12.50;6.00;;;;;;;5.28;99.71;97713.89;107129;1311;22276;-40
2024/01/02 16:32:51;;;;;;;16.40;7.20;;;;;;;5.22;100.00;97705.36;107273;1307;22437;-41
2024/01/02 16:35:35;;;;;;;16.50;8.00;;;;;;;5.22;100.00;97702.98;107828;1291;22247;-42
2024/01/02 16:38:08;;;;;;;19.40;8.90;;;;;;;5.19;100.00;97701.75;107847;1284;23165;-40
2024/01/02 16:40:55;;;;;;;20.60;8.50;;;;;;;5.16;100.00;97702.05;107855;1288;22442;-40
2024/01/02 16:43:21;;;;;;;14.50;7.30;;;;;;;5.14;100.00;97700.61;107851;1284;22551;-40
2024/01/02 16:45:47;;;;;;;17.20;8.20;;;;;;;5.15;100.00;97693.27;107832;1284;22326;-40
2024/01/02 16:48:17;;;;;;;17.40;7.80;;;;;;;5.16;100.00;97691.45;107593;1289;22729;-40
2024/01/02 16:50:48;;;;;;;16.70;6.30;;;;;;;5.18;100.00;97691.55;107136;1303;22600;-37
2024/01/02 16:53:16;;;;;;;11.10;6.10;;;;;;;5.17;100.00;97687.76;106623;1308;22698;-39
2024/01/02 16:55:43;;;;;;;13.90;6.40;;;;;;;5.16;100.00;97686.99;106656;1308;25421;-40
2024/01/02 16:58:20;;;;;;;38.00;17.40;;;;;;;5.15;100.00;97680.59;107240;1308;25411;-37
2024/01/02 17:00:47;;;;;;;19.10;10.60;;;;;;;5.14;100.00;97682.02;106756;1291;22372;-41
2024/01/02 17:03:12;;;;;;;19.30;11.50;;;;;;;5.14;100.00;97683.45;106837;1308;25330;-37
2024/01/02 17:05:38;;;;;;;27.20;13.30;;;;;;;5.11;100.00;97682.21;107739;1308;22268;-41
2024/01/02 17:08:04;;;;;;;22.80;10.60;;;;;;;5.08;100.00;97677.15;107725;1300;22460;-40
2024/01/02 17:10:31;;;;;;;26.00;13.20;;;;;;;5.09;100.00;97672.23;107759;1300;22439;-40
2024/01/02 17:12:59;;;;;;;23.40;12.00;;;;;;;5.10;100.00;97669.26;107734;1301;23094;-41
2024/01/02 17:15:27;;;;;;;23.50;11.30;;;;;;;5.12;100.00;97662.33;107765;1301;22381;-40
2024/01/02 17:17:55;;;;;;;20.40;10.90;;;;;;;5.15;100.00;97656.62;107766;1301;22384;-41
2024/01/02 17:20:23;;;;;;;19.90;9.70;;;;;;;5.17;100.00;97649.36;107753;1300;22385;-40
2024/01/02 17:22:49;;;;;;;23.20;10.50;;;;;;;5.18;100.00;97642.54;107770;1304;22435;-40
2024/01/02 17:25:15;;;;;;;28.30;12.30;;;;;;;5.18;100.00;97634.73;107794;1308;22374;-39
2024/01/02 17:27:41;;;;;;;31.70;13.10;;;;;;;5.11;100.00;97631.49;107775;1304;22468;-40
2024/01/02 17:30:07;;;;;;;33.80;15.10;;;;;;;5.08;100.00;97629.38;107717;1285;22386;-40
2024/01/02 17:32:33;;;;;;;27.10;13.70;;;;;;;5.09;100.00;97622.55;107730;1297;22395;-40
2024/01/02 17:35:05;;;;;;;24.40;12.30;;;;;;;5.07;100.00;97621.17;107716;1289;22289;-39
2024/01/02 17:37:31;;;;;;;22.10;11.20;;;;;;;4.99;100.00;97616.40;107717;1302;23140;-40
2024/01/02 17:39:58;;;;;;;26.90;12.90;;;;;;;4.94;100.00;97611.14;107698;1291;22388;-40
2024/01/02 17:42:28;;;;;;;26.00;13.70;;;;;;;4.95;100.00;97607.23;107708;1287;22388;-40
2024/01/02 17:44:53;;;;;;;21.00;11.80;;;;;;;4.91;100.00;97605.09;107727;1306;22451;-40
2024/01/02 17:47:19;;;;;;;26.00;12.80;;;;;;;4.86;100.00;97597.86;107712;1301;22452;-40
2024/01/02 17:49:44;;;;;;;52.70;26.90;;;;;;;4.87;100.00;97596.07;107715;1301;22289;-38
2024/01/02 17:52:11;;;;;;;33.40;14.80;;;;;;;4.87;100.00;97594.89;107718;1302;22285;-39
2024/01/02 17:54:37;;;;;;;72.70;38.60;;;;;;;4.89;100.00;97590.95;107720;1302;22303;-37
2024/01/02 17:57:22;;;;;;;47.00;23.30;;;;;;;4.91;100.00;97587.00;107726;1301;22236;-37
2024/01/02 17:59:56;;;;;;;56.20;28.70;;;;;;;4.95;100.00;97584.31;107717;1308;23155;-38
2024/01/02 18:02:27;;;;;;;48.60;22.10;;;;;;;4.91;100.00;97574.83;107719;1302;22639;-38
2024/01/02 18:05:03;;;;;;;40.50;18.30;;;;;;;4.92;100.00;97569.04;107732;1301;23413;-38
2024/01/02 18:07:40;;;;;;;39.40;19.00;;;;;;;4.93;100.00;97563.09;107735;1301;23246;-38
2024/01/02 18:10:20;;;;;;;32.80;15.40;;;;;;;4.96;100.00;97560.96;107740;1303;23307;-37
2024/01/02 18:12:55;;;;;;;39.90;20.50;;;;;;;4.96;100.00;97559.95;107716;1308;22249;-38
2024/01/02 18:15:37;;;;;;;42.10;20.60;;;;;;;4.97;100.00;97554.16;107721;1302;22392;-38
2024/01/02 18:18:06;;;;;;;32.00;16.10;;;;;;;5.01;100.00;97549.73;107758;1290;22237;-38
2024/01/02 18:20:56;;;;;;;28.50;13.70;;;;;;;5.05;100.00;97547.98;107611;1304;23020;-38
2024/01/02 18:23:32;;;;;;;25.10;12.30;;;;;;;5.06;100.00;97541.68;107718;1302;22491;-38
2024/01/02 18:26:09;;;;;;;31.60;12.90;;;;;;;5.09;100.00;97540.23;107737;1305;23000;-40
2024/01/02 18:28:47;;;;;;;30.80;12.70;;;;;;;5.02;100.00;97540.64;107750;1289;22404;-38
2024/01/02 18:31:49;;;;;;;26.30;12.00;;;;;;;5.04;100.00;97537.98;107758;1308;22423;-37
2024/01/02 18:34:14;;;;;;;25.50;10.90;;;;;;;5.06;100.00;97532.98;107708;1301;22392;-37
2024/01/02 18:37:02;;;;;;;27.00;11.20;;;;;;;5.09;100.00;97529.27;107730;1308;22252;-36
2024/01/02 18:39:37;;;;;;;23.60;12.30;;;;;;;5.07;100.00;97519.52;107731;1308;22300;-39
2024/01/02 18:42:14;;;;;;;30.00;14.40;;;;;;;5.05;100.00;97511.16;107766;1308;22394;-37
2024/01/02 18:45:01;;;;;;;27.80;14.70;;;;;;;4.98;100.00;97510.34;107770;1308;22306;-37
2024/01/02 18:48:01;;;;;;;42.80;22.60;;;;;;;5.02;100.00;97505.74;107778;1308;22251;-39
2024/01/02 18:50:31;;;;;;;43.20;19.00;;;;;;;5.00;100.00;97505.04;107705;1308;22304;-38
2024/01/02 18:53:12;;;;;;;36.40;16.20;;;;;;;4.97;100.00;97501.35;107738;1308;22268;-38
2024/01/02 18:55:39;;;;;;;27.70;12.40;;;;;;;5.01;100.00;97497.31;107759;1308;22271;-39
2024/01/02 18:58:06;;;;;;;28.30;12.30;;;;;;;5.05;100.00;97496.06;107754;1308;22250;-39
2024/01/02 19:00:32;;;;;;;30.00;14.60;;;;;;;5.06;100.00;97488.16;107763;1288;22420;-37
2024/01/02 19:02:57;;;;;;;25.20;10.70;;;;;;;5.06;100.00;97485.39;107756;1297;22606;-38
2024/01/02 19:05:40;;;;;;;22.30;10.00;;;;;;;5.00;100.00;97476.53;107747;1308;22399;-37
2024/01/02 19:08:10;;;;;;;24.10;10.20;;;;;;;4.99;100.00;97473.65;107747;1289;23150;-37
2024/01/02 19:10:38;;;;;;;22.90;9.30;;;;;;;4.98;100.00;97471.44;107751;1308;22869;-37
2024/01/02 19:13:05;;;;;;;19.20;9.10;;;;;;;4.99;100.00;97468.77;107777;1291;22261;-39
2024/01/02 19:15:31;;;;;;;23.50;10.80;;;;;;;4.96;100.00;97466.88;107774;1308;22342;-37
2024/01/02 19:17:57;;;;;;;30.30;15.00;;;;;;;4.98;100.00;97463.98;107759;1289;22250;-37
2024/01/02 19:20:22;;;;;;;20.60;9.80;;;;;;;4.97;100.00;97459.52;107741;1308;22266;-37
2024/01/02 19:22:51;;;;;;;27.10;12.40;;;;;;;5.01;100.00;97453.20;107765;1287;22235;-38
2024/01/02 19:25:20;;;;;;;19.20;9.00;;;;;;;5.03;100.00;97447.21;107744;1308;22255;-38
2024/01/02 19:27:47;;;;;;;22.70;9.80;;;;;;;4.99;100.00;97440.80;107745;1290;22418;-37
2024/01/02 19:30:13;;;;;;;31.50;10.80;;;;;;;4.95;100.00;97437.05;107766;1287;22291;-39
2024/01/02 19:32:39;;;;;;;26.00;9.90;;;;;;;4.94;100.00;97432.40;107744;1308;22476;-38
2024/01/02 19:35:05;;;;;;;25.30;9.80;;;;;;;4.97;100.00;97426.88;107792;1308;22329;-38
2024/01/02 19:37:34;;;;;;;20.50;8.70;;;;;;;4.98;100.00;97421.26;107746;1308;22343;-38
2024/01/02 19:40:01;;;;;;;23.60;10.30;;;;;;;4.92;100.00;97418.11;107739;1308;22853;-38
2024/01/02 19:42:27;;;;;;;22.10;8.70;;;;;;;4.92;100.00;97416.42;107759;1308;23202;-38
2024/01/02 19:44:52;;;;;;;19.20;8.50;;;;;;;4.96;100.00;97410.23;107761;1308;22414;-39
2024/01/02 19:47:18;;;;;;;20.30;8.90;;;;;;;5.01;100.00;97409.60;107782;1289;22541;-38
2024/01/02 19:49:44;;;;;;;23.20;9.40;;;;;;;5.05;100.00;97408.30;107748;1308;22298;-37
2024/01/02 19:52:10;;;;;;;21.80;9.40;;;;;;;5.07;100.00;97407.86;107752;1291;22234;-37
2024/01/02 19:54:36;;;;;;;18.90;8.90;;;;;;;5.08;100.00;97404.32;107738;1290;23027;-37
2024/01/02 19:57:01;;;;;;;19.40;7.50;;;;;;;5.06;100.00;97401.66;107759;1308;23077;-38
2024/01/02 19:59:26;;;;;;;18.90;8.40;;;;;;;5.00;100.00;97394.73;107746;1295;23216;-39
2024/01/02 20:01:52;;;;;;;22.10;9.10;;;;;;;5.02;100.00;97392.89;107739;1308;22261;-39
2024/01/02 20:04:21;;;;;;;21.90;9.30;;;;;;;5.01;100.00;97386.70;107775;1308;23510;-38
2024/01/02 20:07:08;;;;;;;18.50;8.60;;;;;;;4.93;100.00;97380.25;107752;1287;22420;-38
2024/01/02 20:09:40;;;;;;;20.60;9.00;;;;;;;4.95;100.00;97377.19;107758;1308;22420;-38
2024/01/02 20:12:34;;;;;;;23.40;9.80;;;;;;;4.95;100.00;97372.28;107757;1308;23149;-38
2024/01/02 20:15:00;;;;;;;17.50;8.60;;;;;;;4.96;100.00;97369.95;107772;1289;23334;-39
2024/01/02 20:17:26;;;;;;;33.70;15.20;;;;;;;4.96;100.00;97359.86;107778;1288;22256;-39
2024/01/02 20:19:52;;;;;;;34.60;17.50;;;;;;;4.97;100.00;97355.49;107763;1288;22965;-37
2024/01/02 20:22:28;;;;;;;32.10;14.40;;;;;;;4.92;100.00;97358.58;107748;1308;22948;-37
2024/01/02 20:24:55;;;;;;;24.70;11.50;;;;;;;4.92;100.00;97353.38;107738;1308;22460;-38
2024/01/02 20:27:46;;;;;;;32.00;14.50;;;;;;;4.93;100.00;97357.81;107552;1308;22356;-44
2024/01/02 20:30:14;;;;;;;25.50;11.70;;;;;;;4.95;100.00;97354.90;107791;1289;23112;-38
2024/01/02 20:32:46;;;;;;;21.50;10.40;;;;;;;5.01;100.00;97356.63;107772;1308;22333;-39
2024/01/02 20:35:25;;;;;;;24.90;12.30;;;;;;;5.05;100.00;97361.23;107749;1297;22443;-38
2024/01/02 20:37:51;;;;;;;21.40;9.50;;;;;;;5.04;100.00;97359.55;107733;1288;22293;-36
2024/01/02 20:40:39;;;;;;;27.30;11.50;;;;;;;5.07;100.00;97348.99;107756;1288;22990;-38
2024/01/02 20:43:22;;;;;;;26.70;14.60;;;;;;;5.06;100.00;97341.92;107757;1308;22316;-40
2024/01/02 20:45:47;;;;;;;26.80;11.40;;;;;;;5.05;100.00;97332.11;107757;1308;22372;-37
2024/01/02 20:48:14;;;;;;;23.90;12.30;;;;;;;5.03;100.00;97330.09;107757;1308;22237;-39
2024/01/02 20:50:42;;;;;;;21.00;11.60;;;;;;;5.04;100.00;97325.89;107747;1291;22251;-39
2024/01/02 20:53:28;;;;;;;27.20;12.60;;;;;;;5.07;100.00;97322.40;107741;1308;22993;-40
2024/01/02 20:55:54;;;;;;;26.00;11.00;;;;;;;5.10;100.00;97322.54;107746;1308;22512;-40
2024/01/02 20:58:19;;;;;;;27.40;11.30;;;;;;;5.08;100.00;97324.77;107790;1290;22250;-39
2024/01/02 21:00:45;;;;;;;24.30;11.30;;;;;;;5.05;100.00;97318.52;107743;1308;23016;-39
2024/01/02 21:03:12;;;;;;;24.00;11.80;;;;;;;5.06;100.00;97315.52;107766;1297;22291;-38
2024/01/02 21:05:46;;;;;;;29.30;12.20;;;;;;;5.07;100.00;97315.98;107754;1291;22302;-39
2024/01/02 21:08:27;;;;;;;22.50;10.10;;;;;;;5.09;100.00;97316.35;107744;1308;22332;-40
2024/01/02 21:10:54;;;;;;;21.20;10.10;;;;;;;5.06;100.00;97311.35;107787;1286;22429;-38
2024/01/02 21:13:41;;;;;;;17.10;9.00;;;;;;;5.05;100.00;97309.30;107769;1308;22264;-40
2024/01/02 21:16:14;;;;;;;19.20;8.40;;;;;;;5.08;100.00;97305.48;107748;1308;22450;-39
2024/01/02 21:18:42;;;;;;;20.50;10.10;;;;;;;5.12;100.00;97305.92;107733;1308;22255;-40
2024/01/02 21:21:32;;;;;;;17.50;8.90;;;;;;;5.14;100.00;97302.52;107773;1308;22533;-40
2024/01/02 21:24:00;;;;;;;24.10;10.40;;;;;;;5.14;100.00;97297.77;107807;1308;22207;-38
2024/01/02 21:26:25;;;;;;;20.30;9.90;;;;;;;5.17;100.00;97294.48;107779;1308;22425;-39
2024/01/02 21:28:51;;;;;;;22.40;10.10;;;;;;;5.18;100.00;97290.02;107748;1290;22274;-38
2024/01/02 21:31:16;;;;;;;21.90;10.50;;;;;;;5.20;100.00;97281.56;107755;1289;22407;-39
2024/01/02 21:33:42;;;;;;;19.30;9.40;;;;;;;5.22;100.00;97279.40;107775;1289;22235;-37
2024/01/02 21:36:08;;;;;;;20.40;9.90;;;;;;;5.24;100.00;97281.87;107760;1308;23180;-38
2024/01/02 21:38:34;;;;;;;19.20;10.80;;;;;;;5.24;100.00;97277.86;107745;1308;23010;-38
2024/01/02 21:41:02;;;;;;;22.20;9.00;;;;;;;5.27;100.00;97278.00;107756;1308;22257;-38
2024/01/02 21:43:29;;;;;;;22.50;9.70;;;;;;;5.29;100.00;97279.94;107750;1308;22395;-39
2024/01/02 21:45:55;;;;;;;17.10;8.70;;;;;;;5.28;100.00;97273.21;107751;1308;22278;-40
2024/01/02 21:48:49;;;;;;;18.50;9.70;;;;;;;5.31;100.00;97262.46;107785;1308;22371;-39
2024/01/02 21:51:20;;;;;;;19.10;8.90;;;;;;;5.32;100.00;97256.84;107758;1308;22413;-39
2024/01/02 21:53:49;;;;;;;20.70;9.70;;;;;;;5.29;100.00;97256.65;107780;1308;23346;-37
2024/01/02 21:56:30;;;;;;;21.10;9.80;;;;;;;5.31;100.00;97253.05;107760;1308;23620;-38
2024/01/02 21:58:55;;;;;;;17.30;9.50;;;;;;;5.33;100.00;97251.89;107786;1308;22255;-38
2024/01/02 22:01:25;;;;;;;19.80;9.70;;;;;;;5.32;100.00;97247.91;107767;1308;22248;-40
2024/01/02 22:03:55;;;;;;;17.30;8.90;;;;;;;5.34;100.00;97242.95;107781;1308;22191;-39
2024/01/02 22:06:24;;;;;;;18.90;9.10;;;;;;;5.35;100.00;97236.30;107757;1308;22392;-40
2024/01/02 22:08:52;;;;;;;15.20;8.70;;;;;;;5.38;100.00;97231.92;107753;1308;22659;-38
2024/01/02 22:11:46;;;;;;;21.50;9.80;;;;;;;5.40;100.00;97229.20;107760;1290;22398;-38
2024/01/02 22:14:30;;;;;;;19.00;8.60;;;;;;;5.39;100.00;97225.80;107773;1308;22423;-37
2024/01/02 22:16:56;;;;;;;16.40;8.50;;;;;;;5.32;100.00;97219.63;107752;1308;22537;-39
2024/01/02 22:19:46;;;;;;;18.80;8.60;;;;;;;5.29;100.00;97220.70;107763;1308;22429;-38
2024/01/02 22:22:17;;;;;;;17.20;8.90;;;;;;;5.29;100.00;97215.48;107738;1308;22241;-40
2024/01/02 22:24:42;;;;;;;18.10;8.60;;;;;;;5.30;100.00;97209.14;107781;1290;22257;-38
2024/01/02 22:27:08;;;;;;;18.70;10.00;;;;;;;5.33;100.00;97204.94;107744;1288;22412;-39
2024/01/02 22:29:33;;;;;;;19.10;10.10;;;;;;;5.31;100.00;97200.22;107766;1308;22428;-38
2024/01/02 22:31:58;;;;;;;17.90;9.80;;;;;;;5.32;100.00;97199.79;107752;1291;22260;-36
2024/01/02 22:34:32;;;;;;;16.20;9.30;;;;;;;5.26;100.00;97199.72;107775;1288;22343;-38
2024/01/02 22:36:57;;;;;;;16.50;9.20;;;;;;;5.27;100.00;97198.10;107783;1291;22253;-38
2024/01/02 22:39:41;;;;;;;17.00;8.60;;;;;;;5.29;100.00;97189.09;107756;1289;22967;-37
2024/01/02 22:42:06;;;;;;;16.90;9.40;;;;;;;5.30;100.00;97177.92;107775;1308;22151;-38
2024/01/02 22:44:31;;;;;;;15.40;9.00;;;;;;;5.32;100.00;97169.96;107755;1289;22309;-38
2024/01/02 22:46:57;;;;;;;17.20;9.10;;;;;;;5.33;100.00;97169.04;107762;1291;22245;-38
2024/01/02 22:49:22;;;;;;;17.40;9.20;;;;;;;5.31;100.00;97169.52;107744;1308;22392;-37
2024/01/02 22:51:47;;;;;;;14.40;8.70;;;;;;;5.31;100.00;97163.77;107758;1308;22245;-38
2024/01/02 22:54:16;;;;;;;16.10;8.90;;;;;;;5.32;100.00;97159.55;107757;1308;22282;-37
2024/01/02 22:56:41;;;;;;;16.10;8.50;;;;;;;5.29;100.00;97154.37;107747;1308;22343;-38
2024/01/02 22:59:07;;;;;;;16.80;8.30;;;;;;;5.26;100.00;97156.09;107743;1308;23028;-37
2024/01/02 23:01:32;;;;;;;17.20;8.90;;;;;;;5.26;100.00;97153.16;107754;1308;22415;-37
2024/01/02 23:03:57;;;;;;;14.60;8.50;;;;;;;5.23;100.00;97144.36;107757;1308;22233;-38
2024/01/02 23:06:22;;;;;;;17.00;9.20;;;;;;;5.22;100.00;97143.75;107800;1308;22414;-37
2024/01/02 23:08:48;;;;;;;13.80;8.50;;;;;;;5.25;100.00;97137.09;107774;1308;22423;-38
2024/01/02 23:11:34;;;;;;;14.60;9.20;;;;;;;5.26;100.00;97136.34;107782;1308;22290;-38
2024/01/02 23:14:00;;;;;;;20.20;9.10;;;;;;;5.24;100.00;97129.88;107773;1285;22223;-38
2024/01/02 23:16:25;;;;;;;16.60;9.00;;;;;;;5.25;100.00;97129.45;107775;1308;22354;-38
2024/01/02 23:19:06;;;;;;;17.60;9.10;;;;;;;5.24;100.00;97126.05;107773;1287;22994;-38
2024/01/02 23:21:33;;;;;;;14.80;10.00;;;;;;;5.23;100.00;97121.55;107743;1291;22269;-38
2024/01/02 23:23:59;;;;;;;18.80;9.60;;;;;;;5.24;100.00;97117.73;107748;1308;22340;-37
2024/01/02 23:26:28;;;;;;;17.90;9.40;;;;;;;5.25;100.00;97116.60;107763;1287;22233;-39
2024/01/02 23:28:56;;;;;;;19.70;9.90;;;;;;;5.25;100.00;97112.55;107770;1308;22238;-37
2024/01/02 23:31:21;;;;;;;19.20;9.90;;;;;;;5.25;100.00;97107.89;107767;1293;22231;-39
2024/01/02 23:33:46;;;;;;;15.90;9.60;;;;;;;5.25;100.00;97103.38;107750;1290;22259;-38
2024/01/02 23:36:12;;;;;;;16.10;9.80;;;;;;;5.26;100.00;97101.02;107785;1290;22412;-37
2024/01/02 23:38:38;;;;;;;18.10;10.00;;;;;;;5.27;100.00;97098.89;107765;1308;22417;-38
2024/01/02 23:41:03;;;;;;;15.00;9.10;;;;;;;5.26;100.00;97093.24;107744;1308;23020;-39
2024/01/02 23:43:29;;;;;;;19.80;10.20;;;;;;;5.25;100.00;97091.41;107731;1300;22249;-37
2024/01/02 23:45:56;;;;;;;21.30;11.50;;;;;;;5.23;100.00;97085.80;107521;1308;22416;-40
2024/01/02 23:48:21;;;;;;;17.40;10.30;;;;;;;5.19;100.00;97080.30;107749;1308;23209;-38
2024/01/02 23:50:47;;;;;;;19.50;10.70;;;;;;;5.19;100.00;97078.73;107741;1291;22470;-38
2024/01/02 23:53:12;;;;;;;18.50;10.20;;;;;;;5.18;100.00;97069.77;107784;1308;22352;-41
2024/01/02 23:55:38;;;;;;;18.00;10.30;;;;;;;5.15;100.00;97062.38;107760;1308;22399;-38
2024/01/02 23:58:05;;;;;;;17.50;10.90;;;;;;;5.16;100.00;97058.82;107742;1308;23132;-38
